sensor_id;sensor_type;location;lat;lon;timestamp;P1;durP1;ratioP1;P2;durP2;ratioP2
66425;SDS011;53237;46.158;14.604;2023-07-31T00:00:15;0.93;;;0.93;;
66425;SDS011;53237;46.158;14.604;2023-07-31T00:02:41;1.67;;;0.85;;
66425;SDS011;53237;46.158;14.604;2023-07-31T00:05:08;1.00;;;0.98;;
66425;SDS011;53237;46.158;14.604;2023-07-31T00:07:34;1.13;;;1.02;;
66425;SDS011;53237;46.158;14.604;2023-07-31T00:10:00;3.25;;;1.15;;
66425;SDS011;53237;46.158;14.604;2023-07-31T00:12:27;1.25;;;1.15;;
66425;SDS011;53237;46.158;14.604;2023-07-31T00:14:53;1.17;;;1.00;;
66425;SDS011;53237;46.158;14.604;2023-07-31T00:17:19;2.05;;;0.90;;
66425;SDS011;53237;46.158;14.604;2023-07-31T00:19:45;1.35;;;1.00;;
66425;SDS011;53237;46.158;14.604;2023-07-31T00:22:14;0.93;;;0.90;;
66425;SDS011;53237;46.158;14.604;2023-07-31T00:24:40;1.38;;;0.70;;
66425;SDS011;53237;46.158;14.604;2023-07-31T00:27:06;2.17;;;1.20;;
66425;SDS011;53237;46.158;14.604;2023-07-31T00:29:32;1.58;;;1.20;;
66425;SDS011;53237;46.158;14.604;2023-07-31T00:31:57;1.00;;;1.00;;
66425;SDS011;53237;46.158;14.604;2023-07-31T00:34:23;0.80;;;0.80;;
66425;SDS011;53237;46.158;14.604;2023-07-31T00:36:49;1.35;;;1.05;;
66425;SDS011;53237;46.158;14.604;2023-07-31T00:39:15;0.93;;;0.90;;
66425;SDS011;53237;46.158;14.604;2023-07-31T00:41:41;1.27;;;1.10;;
66425;SDS011;53237;46.158;14.604;2023-07-31T00:44:07;1.02;;;0.90;;
66425;SDS011;53237;46.158;14.604;2023-07-31T00:46:33;2.38;;;1.00;;
66425;SDS011;53237;46.158;14.604;2023-07-31T00:48:59;1.10;;;1.00;;
66425;SDS011;53237;46.158;14.604;2023-07-31T00:51:26;1.50;;;1.10;;
66425;SDS011;53237;46.158;14.604;2023-07-31T00:53:52;0.75;;;0.75;;
66425;SDS011;53237;46.158;14.604;2023-07-31T00:56:19;1.27;;;1.10;;
66425;SDS011;53237;46.158;14.604;2023-07-31T00:58:45;1.35;;;0.95;;
66425;SDS011;53237;46.158;14.604;2023-07-31T01:01:11;1.27;;;1.17;;
66425;SDS011;53237;46.158;14.604;2023-07-31T01:03:37;1.60;;;1.10;;
66425;SDS011;53237;46.158;14.604;2023-07-31T01:06:08;0.90;;;0.85;;
66425;SDS011;53237;46.158;14.604;2023-07-31T01:11:16;0.90;;;0.90;;
66425;SDS011;53237;46.158;14.604;2023-07-31T01:13:44;0.80;;;0.80;;
66425;SDS011;53237;46.158;14.604;2023-07-31T01:16:10;0.95;;;0.95;;
66425;SDS011;53237;46.158;14.604;2023-07-31T01:18:36;0.80;;;0.80;;
66425;SDS011;53237;46.158;14.604;2023-07-31T01:21:03;1.13;;;1.00;;
66425;SDS011;53237;46.158;14.604;2023-07-31T01:26:25;1.63;;;1.00;;
66425;SDS011;53237;46.158;14.604;2023-07-31T01:28:55;1.10;;;1.00;;
66425;SDS011;53237;46.158;14.604;2023-07-31T01:31:25;0.95;;;0.93;;
66425;SDS011;53237;46.158;14.604;2023-07-31T01:33:53;1.33;;;1.20;;
66425;SDS011;53237;46.158;14.604;2023-07-31T01:36:19;1.48;;;1.38;;
66425;SDS011;53237;46.158;14.604;2023-07-31T01:38:45;1.08;;;0.98;;
66425;SDS011;53237;46.158;14.604;2023-07-31T01:41:11;0.90;;;0.90;;
66425;SDS011;53237;46.158;14.604;2023-07-31T01:43:38;1.20;;;1.10;;
66425;SDS011;53237;46.158;14.604;2023-07-31T01:46:04;1.45;;;0.98;;
66425;SDS011;53237;46.158;14.604;2023-07-31T01:48:30;1.20;;;1.00;;
66425;SDS011;53237;46.158;14.604;2023-07-31T01:51:00;0.80;;;0.80;;
66425;SDS011;53237;46.158;14.604;2023-07-31T01:53:27;2.78;;;1.05;;
66425;SDS011;53237;46.158;14.604;2023-07-31T01:55:53;1.17;;;0.93;;
66425;SDS011;53237;46.158;14.604;2023-07-31T01:58:19;1.08;;;0.98;;
66425;SDS011;53237;46.158;14.604;2023-07-31T02:00:45;0.90;;;0.90;;
66425;SDS011;53237;46.158;14.604;2023-07-31T02:03:11;0.80;;;0.80;;
66425;SDS011;53237;46.158;14.604;2023-07-31T02:05:43;0.75;;;0.75;;
66425;SDS011;53237;46.158;14.604;2023-07-31T02:08:09;0.90;;;0.90;;
66425;SDS011;53237;46.158;14.604;2023-07-31T02:10:35;1.10;;;0.80;;
66425;SDS011;53237;46.158;14.604;2023-07-31T02:13:01;1.05;;;0.80;;
66425;SDS011;53237;46.158;14.604;2023-07-31T02:15:29;0.80;;;0.80;;
66425;SDS011;53237;46.158;14.604;2023-07-31T02:17:55;1.10;;;1.00;;
66425;SDS011;53237;46.158;14.604;2023-07-31T02:20:21;1.95;;;1.05;;
66425;SDS011;53237;46.158;14.604;2023-07-31T02:22:47;0.80;;;0.80;;
66425;SDS011;53237;46.158;14.604;2023-07-31T02:25:13;1.00;;;1.00;;
66425;SDS011;53237;46.158;14.604;2023-07-31T02:27:39;1.25;;;0.77;;
66425;SDS011;53237;46.158;14.604;2023-07-31T02:30:05;1.42;;;1.00;;
66425;SDS011;53237;46.158;14.604;2023-07-31T02:32:31;1.38;;;1.05;;
66425;SDS011;53237;46.158;14.604;2023-07-31T02:34:57;0.80;;;0.80;;
66425;SDS011;53237;46.158;14.604;2023-07-31T02:37:23;1.45;;;0.95;;
66425;SDS011;53237;46.158;14.604;2023-07-31T02:39:49;1.33;;;0.98;;
66425;SDS011;53237;46.158;14.604;2023-07-31T02:42:15;1.30;;;0.80;;
66425;SDS011;53237;46.158;14.604;2023-07-31T02:44:41;0.95;;;0.85;;
66425;SDS011;53237;46.158;14.604;2023-07-31T02:47:07;3.10;;;1.00;;
66425;SDS011;53237;46.158;14.604;2023-07-31T02:49:33;0.90;;;0.85;;
66425;SDS011;53237;46.158;14.604;2023-07-31T02:51:59;1.40;;;1.20;;
66425;SDS011;53237;46.158;14.604;2023-07-31T02:54:25;2.05;;;0.90;;
66425;SDS011;53237;46.158;14.604;2023-07-31T02:56:51;1.85;;;0.90;;
66425;SDS011;53237;46.158;14.604;2023-07-31T02:59:17;1.67;;;1.02;;
66425;SDS011;53237;46.158;14.604;2023-07-31T03:01:43;3.15;;;0.90;;
66425;SDS011;53237;46.158;14.604;2023-07-31T03:04:09;3.58;;;1.25;;
66425;SDS011;53237;46.158;14.604;2023-07-31T03:06:35;2.97;;;0.98;;
66425;SDS011;53237;46.158;14.604;2023-07-31T03:09:01;1.27;;;0.80;;
66425;SDS011;53237;46.158;14.604;2023-07-31T03:11:27;1.48;;;0.90;;
66425;SDS011;53237;46.158;14.604;2023-07-31T03:13:53;3.17;;;1.10;;
66425;SDS011;53237;46.158;14.604;2023-07-31T03:16:19;1.58;;;0.95;;
66425;SDS011;53237;46.158;14.604;2023-07-31T03:18:45;0.93;;;0.82;;
66425;SDS011;53237;46.158;14.604;2023-07-31T03:21:12;1.45;;;0.70;;
66425;SDS011;53237;46.158;14.604;2023-07-31T03:23:38;1.55;;;0.98;;
66425;SDS011;53237;46.158;14.604;2023-07-31T03:26:06;1.20;;;0.90;;
66425;SDS011;53237;46.158;14.604;2023-07-31T03:28:32;1.15;;;1.02;;
66425;SDS011;53237;46.158;14.604;2023-07-31T03:30:59;1.02;;;0.80;;
66425;SDS011;53237;46.158;14.604;2023-07-31T03:33:25;1.23;;;0.80;;
66425;SDS011;53237;46.158;14.604;2023-07-31T03:35:51;1.30;;;1.05;;
66425;SDS011;53237;46.158;14.604;2023-07-31T03:38:17;0.82;;;0.82;;
66425;SDS011;53237;46.158;14.604;2023-07-31T03:40:43;2.38;;;0.88;;
66425;SDS011;53237;46.158;14.604;2023-07-31T03:43:09;2.58;;;1.30;;
66425;SDS011;53237;46.158;14.604;2023-07-31T03:45:35;3.40;;;1.13;;
66425;SDS011;53237;46.158;14.604;2023-07-31T03:48:01;1.55;;;1.10;;
66425;SDS011;53237;46.158;14.604;2023-07-31T03:50:28;2.22;;;0.98;;
66425;SDS011;53237;46.158;14.604;2023-07-31T03:52:54;2.67;;;1.20;;
66425;SDS011;53237;46.158;14.604;2023-07-31T03:55:20;2.15;;;1.10;;
66425;SDS011;53237;46.158;14.604;2023-07-31T03:57:46;2.28;;;1.17;;
66425;SDS011;53237;46.158;14.604;2023-07-31T04:00:13;1.00;;;0.90;;
66425;SDS011;53237;46.158;14.604;2023-07-31T04:02:39;1.10;;;0.93;;
66425;SDS011;53237;46.158;14.604;2023-07-31T04:05:05;1.25;;;1.02;;
66425;SDS011;53237;46.158;14.604;2023-07-31T04:07:31;0.90;;;0.90;;
66425;SDS011;53237;46.158;14.604;2023-07-31T04:09:57;1.05;;;1.00;;
66425;SDS011;53237;46.158;14.604;2023-07-31T04:12:23;1.75;;;0.90;;
66425;SDS011;53237;46.158;14.604;2023-07-31T04:14:49;0.90;;;0.90;;
66425;SDS011;53237;46.158;14.604;2023-07-31T04:17:17;1.10;;;1.00;;
66425;SDS011;53237;46.158;14.604;2023-07-31T04:19:43;2.03;;;1.10;;
66425;SDS011;53237;46.158;14.604;2023-07-31T04:22:09;1.00;;;1.00;;
66425;SDS011;53237;46.158;14.604;2023-07-31T04:24:35;0.80;;;0.80;;
66425;SDS011;53237;46.158;14.604;2023-07-31T04:27:01;0.63;;;0.63;;
66425;SDS011;53237;46.158;14.604;2023-07-31T04:29:27;0.80;;;0.80;;
66425;SDS011;53237;46.158;14.604;2023-07-31T04:31:53;1.30;;;0.90;;
66425;SDS011;53237;46.158;14.604;2023-07-31T04:34:19;0.70;;;0.70;;
66425;SDS011;53237;46.158;14.604;2023-07-31T04:36:45;1.42;;;0.88;;
66425;SDS011;53237;46.158;14.604;2023-07-31T04:39:11;0.98;;;0.90;;
66425;SDS011;53237;46.158;14.604;2023-07-31T04:41:37;0.90;;;0.90;;
66425;SDS011;53237;46.158;14.604;2023-07-31T04:44:03;1.00;;;0.80;;
66425;SDS011;53237;46.158;14.604;2023-07-31T04:46:29;1.02;;;0.90;;
66425;SDS011;53237;46.158;14.604;2023-07-31T04:48:55;0.80;;;0.80;;
66425;SDS011;53237;46.158;14.604;2023-07-31T04:51:21;0.80;;;0.80;;
66425;SDS011;53237;46.158;14.604;2023-07-31T04:53:48;1.08;;;0.98;;
66425;SDS011;53237;46.158;14.604;2023-07-31T04:56:14;1.08;;;0.98;;
66425;SDS011;53237;46.158;14.604;2023-07-31T04:58:40;1.33;;;0.98;;
66425;SDS011;53237;46.158;14.604;2023-07-31T05:01:06;1.52;;;1.10;;
66425;SDS011;53237;46.158;14.604;2023-07-31T05:03:32;1.15;;;0.90;;
66425;SDS011;53237;46.158;14.604;2023-07-31T05:05:58;0.80;;;0.80;;
66425;SDS011;53237;46.158;14.604;2023-07-31T05:08:24;2.95;;;1.65;;
66425;SDS011;53237;46.158;14.604;2023-07-31T05:10:50;1.95;;;1.33;;
66425;SDS011;53237;46.158;14.604;2023-07-31T05:13:16;1.65;;;1.30;;
66425;SDS011;53237;46.158;14.604;2023-07-31T05:15:42;1.52;;;1.08;;
66425;SDS011;53237;46.158;14.604;2023-07-31T05:18:08;1.83;;;1.20;;
66425;SDS011;53237;46.158;14.604;2023-07-31T05:20:34;1.55;;;1.45;;
66425;SDS011;53237;46.158;14.604;2023-07-31T05:23:00;1.70;;;1.30;;
66425;SDS011;53237;46.158;14.604;2023-07-31T05:25:26;1.23;;;0.90;;
66425;SDS011;53237;46.158;14.604;2023-07-31T05:27:52;3.28;;;1.23;;
66425;SDS011;53237;46.158;14.604;2023-07-31T05:30:18;1.85;;;1.23;;
66425;SDS011;53237;46.158;14.604;2023-07-31T05:32:44;2.65;;;1.27;;
66425;SDS011;53237;46.158;14.604;2023-07-31T05:35:10;1.13;;;1.02;;
66425;SDS011;53237;46.158;14.604;2023-07-31T05:37:36;0.90;;;0.90;;
66425;SDS011;53237;46.158;14.604;2023-07-31T05:40:02;2.08;;;1.00;;
66425;SDS011;53237;46.158;14.604;2023-07-31T05:42:29;1.35;;;1.20;;
66425;SDS011;53237;46.158;14.604;2023-07-31T05:44:55;1.33;;;1.10;;
66425;SDS011;53237;46.158;14.604;2023-07-31T05:47:20;1.80;;;1.60;;
66425;SDS011;53237;46.158;14.604;2023-07-31T05:49:46;1.63;;;1.50;;
66425;SDS011;53237;46.158;14.604;2023-07-31T05:52:12;2.83;;;1.30;;
66425;SDS011;53237;46.158;14.604;2023-07-31T05:54:39;1.67;;;1.45;;
66425;SDS011;53237;46.158;14.604;2023-07-31T05:57:05;1.77;;;1.30;;
66425;SDS011;53237;46.158;14.604;2023-07-31T05:59:31;1.60;;;1.30;;
66425;SDS011;53237;46.158;14.604;2023-07-31T06:01:58;1.20;;;1.10;;
66425;SDS011;53237;46.158;14.604;2023-07-31T06:04:24;1.70;;;1.40;;
66425;SDS011;53237;46.158;14.604;2023-07-31T06:06:50;1.23;;;1.13;;
66425;SDS011;53237;46.158;14.604;2023-07-31T06:09:16;2.25;;;1.40;;
66425;SDS011;53237;46.158;14.604;2023-07-31T06:11:42;1.80;;;1.17;;
66425;SDS011;53237;46.158;14.604;2023-07-31T06:14:08;1.20;;;1.10;;
66425;SDS011;53237;46.158;14.604;2023-07-31T06:16:34;1.52;;;1.10;;
66425;SDS011;53237;46.158;14.604;2023-07-31T06:19:01;1.75;;;1.17;;
66425;SDS011;53237;46.158;14.604;2023-07-31T06:21:27;1.45;;;1.05;;
66425;SDS011;53237;46.158;14.604;2023-07-31T06:23:53;1.13;;;1.00;;
66425;SDS011;53237;46.158;14.604;2023-07-31T06:26:19;1.52;;;1.15;;
66425;SDS011;53237;46.158;14.604;2023-07-31T06:28:45;4.30;;;2.08;;
66425;SDS011;53237;46.158;14.604;2023-07-31T06:31:11;1.50;;;1.40;;
66425;SDS011;53237;46.158;14.604;2023-07-31T06:33:37;2.85;;;1.58;;
66425;SDS011;53237;46.158;14.604;2023-07-31T06:36:03;3.35;;;1.70;;
66425;SDS011;53237;46.158;14.604;2023-07-31T06:38:29;2.78;;;1.40;;
66425;SDS011;53237;46.158;14.604;2023-07-31T06:40:55;4.45;;;1.63;;
66425;SDS011;53237;46.158;14.604;2023-07-31T06:43:21;4.63;;;2.13;;
66425;SDS011;53237;46.158;14.604;2023-07-31T06:45:48;3.08;;;1.63;;
66425;SDS011;53237;46.158;14.604;2023-07-31T06:48:16;1.90;;;1.23;;
66425;SDS011;53237;46.158;14.604;2023-07-31T06:50:42;2.88;;;1.60;;
66425;SDS011;53237;46.158;14.604;2023-07-31T06:53:08;1.63;;;1.52;;
66425;SDS011;53237;46.158;14.604;2023-07-31T06:55:34;1.25;;;0.90;;
66425;SDS011;53237;46.158;14.604;2023-07-31T06:58:00;1.40;;;1.02;;
66425;SDS011;53237;46.158;14.604;2023-07-31T07:00:26;2.40;;;1.70;;
66425;SDS011;53237;46.158;14.604;2023-07-31T07:02:53;3.33;;;1.50;;
66425;SDS011;53237;46.158;14.604;2023-07-31T07:05:19;4.90;;;2.00;;
66425;SDS011;53237;46.158;14.604;2023-07-31T07:07:45;4.28;;;2.25;;
66425;SDS011;53237;46.158;14.604;2023-07-31T07:10:11;3.05;;;1.88;;
66425;SDS011;53237;46.158;14.604;2023-07-31T07:12:37;1.35;;;1.20;;
66425;SDS011;53237;46.158;14.604;2023-07-31T07:15:03;3.90;;;1.75;;
66425;SDS011;53237;46.158;14.604;2023-07-31T07:17:30;2.47;;;1.40;;
66425;SDS011;53237;46.158;14.604;2023-07-31T07:19:59;4.25;;;2.00;;
66425;SDS011;53237;46.158;14.604;2023-07-31T07:22:25;6.15;;;2.70;;
66425;SDS011;53237;46.158;14.604;2023-07-31T07:24:52;1.48;;;1.38;;
66425;SDS011;53237;46.158;14.604;2023-07-31T07:27:18;3.22;;;2.00;;
66425;SDS011;53237;46.158;14.604;2023-07-31T07:29:45;6.13;;;4.65;;
66425;SDS011;53237;46.158;14.604;2023-07-31T07:32:11;6.60;;;3.67;;
66425;SDS011;53237;46.158;14.604;2023-07-31T07:34:37;5.38;;;2.70;;
66425;SDS011;53237;46.158;14.604;2023-07-31T07:37:03;2.65;;;1.92;;
66425;SDS011;53237;46.158;14.604;2023-07-31T07:39:29;3.05;;;1.98;;
66425;SDS011;53237;46.158;14.604;2023-07-31T07:41:55;2.08;;;1.55;;
66425;SDS011;53237;46.158;14.604;2023-07-31T07:44:21;3.95;;;1.80;;
66425;SDS011;53237;46.158;14.604;2023-07-31T07:46:47;2.65;;;1.40;;
66425;SDS011;53237;46.158;14.604;2023-07-31T07:49:13;1.58;;;1.38;;
66425;SDS011;53237;46.158;14.604;2023-07-31T07:51:39;1.75;;;1.30;;
66425;SDS011;53237;46.158;14.604;2023-07-31T07:54:05;2.28;;;1.50;;
66425;SDS011;53237;46.158;14.604;2023-07-31T07:56:32;1.42;;;1.33;;
66425;SDS011;53237;46.158;14.604;2023-07-31T07:58:58;1.40;;;1.30;;
66425;SDS011;53237;46.158;14.604;2023-07-31T08:01:24;1.50;;;1.40;;
66425;SDS011;53237;46.158;14.604;2023-07-31T08:03:50;1.27;;;1.17;;
66425;SDS011;53237;46.158;14.604;2023-07-31T08:06:16;2.55;;;1.10;;
66425;SDS011;53237;46.158;14.604;2023-07-31T08:08:42;1.10;;;1.00;;
66425;SDS011;53237;46.158;14.604;2023-07-31T08:11:08;2.70;;;1.30;;
66425;SDS011;53237;46.158;14.604;2023-07-31T08:13:34;1.10;;;1.10;;
66425;SDS011;53237;46.158;14.604;2023-07-31T08:16:02;2.10;;;1.42;;
66425;SDS011;53237;46.158;14.604;2023-07-31T08:18:28;4.40;;;2.00;;
66425;SDS011;53237;46.158;14.604;2023-07-31T08:20:54;2.15;;;1.45;;
66425;SDS011;53237;46.158;14.604;2023-07-31T08:23:20;1.30;;;1.20;;
66425;SDS011;53237;46.158;14.604;2023-07-31T08:25:46;1.45;;;1.25;;
66425;SDS011;53237;46.158;14.604;2023-07-31T08:28:12;1.70;;;1.25;;
66425;SDS011;53237;46.158;14.604;2023-07-31T08:30:38;1.52;;;1.27;;
66425;SDS011;53237;46.158;14.604;2023-07-31T08:33:03;1.30;;;1.20;;
66425;SDS011;53237;46.158;14.604;2023-07-31T08:35:29;1.23;;;1.13;;
66425;SDS011;53237;46.158;14.604;2023-07-31T08:37:56;1.67;;;1.10;;
66425;SDS011;53237;46.158;14.604;2023-07-31T08:40:22;1.10;;;1.10;;
66425;SDS011;53237;46.158;14.604;2023-07-31T08:42:52;1.33;;;1.23;;
66425;SDS011;53237;46.158;14.604;2023-07-31T08:45:19;1.00;;;1.00;;
66425;SDS011;53237;46.158;14.604;2023-07-31T08:47:49;1.40;;;1.30;;
66425;SDS011;53237;46.158;14.604;2023-07-31T08:50:20;1.25;;;1.13;;
66425;SDS011;53237;46.158;14.604;2023-07-31T08:52:47;1.23;;;1.13;;
66425;SDS011;53237;46.158;14.604;2023-07-31T08:55:13;0.80;;;0.80;;
66425;SDS011;53237;46.158;14.604;2023-07-31T08:57:39;1.20;;;1.10;;
66425;SDS011;53237;46.158;14.604;2023-07-31T09:00:06;1.15;;;1.15;;
66425;SDS011;53237;46.158;14.604;2023-07-31T09:02:45;1.27;;;1.17;;
66425;SDS011;53237;46.158;14.604;2023-07-31T09:05:12;1.10;;;1.10;;
66425;SDS011;53237;46.158;14.604;2023-07-31T09:07:38;1.20;;;1.10;;
66425;SDS011;53237;46.158;14.604;2023-07-31T09:10:05;1.90;;;1.13;;
66425;SDS011;53237;46.158;14.604;2023-07-31T09:12:31;1.25;;;1.15;;
66425;SDS011;53237;46.158;14.604;2023-07-31T09:14:58;1.48;;;1.27;;
66425;SDS011;53237;46.158;14.604;2023-07-31T09:17:30;1.08;;;1.00;;
66425;SDS011;53237;46.158;14.604;2023-07-31T09:19:57;1.10;;;1.00;;
66425;SDS011;53237;46.158;14.604;2023-07-31T09:22:33;1.30;;;1.20;;
66425;SDS011;53237;46.158;14.604;2023-07-31T09:25:06;1.38;;;1.10;;
66425;SDS011;53237;46.158;14.604;2023-07-31T09:27:45;1.20;;;1.10;;
66425;SDS011;53237;46.158;14.604;2023-07-31T09:30:12;0.90;;;0.90;;
66425;SDS011;53237;46.158;14.604;2023-07-31T09:32:38;1.30;;;1.20;;
66425;SDS011;53237;46.158;14.604;2023-07-31T09:38:00;0.95;;;0.95;;
66425;SDS011;53237;46.158;14.604;2023-07-31T09:40:30;0.95;;;0.95;;
66425;SDS011;53237;46.158;14.604;2023-07-31T09:43:01;2.30;;;1.20;;
66425;SDS011;53237;46.158;14.604;2023-07-31T09:47:54;1.30;;;1.20;;
66425;SDS011;53237;46.158;14.604;2023-07-31T09:50:21;0.90;;;0.90;;
66425;SDS011;53237;46.158;14.604;2023-07-31T09:52:47;1.00;;;1.00;;
66425;SDS011;53237;46.158;14.604;2023-07-31T09:55:13;1.20;;;1.10;;
66425;SDS011;53237;46.158;14.604;2023-07-31T09:57:40;0.70;;;0.70;;
66425;SDS011;53237;46.158;14.604;2023-07-31T10:00:10;1.50;;;1.10;;
66425;SDS011;53237;46.158;14.604;2023-07-31T10:02:36;1.00;;;1.00;;
66425;SDS011;53237;46.158;14.604;2023-07-31T10:05:03;1.20;;;1.10;;
66425;SDS011;53237;46.158;14.604;2023-07-31T10:07:30;1.50;;;1.40;;
66425;SDS011;53237;46.158;14.604;2023-07-31T10:09:57;1.30;;;1.20;;
66425;SDS011;53237;46.158;14.604;2023-07-31T10:12:27;1.02;;;1.02;;
66425;SDS011;53237;46.158;14.604;2023-07-31T10:14:54;1.40;;;1.30;;
66425;SDS011;53237;46.158;14.604;2023-07-31T10:17:24;1.08;;;0.98;;
66425;SDS011;53237;46.158;14.604;2023-07-31T10:19:50;1.15;;;1.08;;
66425;SDS011;53237;46.158;14.604;2023-07-31T10:22:16;1.30;;;1.20;;
66425;SDS011;53237;46.158;14.604;2023-07-31T10:24:43;1.42;;;1.33;;
66425;SDS011;53237;46.158;14.604;2023-07-31T10:27:10;0.90;;;0.90;;
66425;SDS011;53237;46.158;14.604;2023-07-31T10:29:37;0.90;;;0.90;;
66425;SDS011;53237;46.158;14.604;2023-07-31T10:32:03;0.90;;;0.90;;
66425;SDS011;53237;46.158;14.604;2023-07-31T10:34:33;1.00;;;1.00;;
66425;SDS011;53237;46.158;14.604;2023-07-31T10:39:43;1.10;;;1.00;;
66425;SDS011;53237;46.158;14.604;2023-07-31T10:42:20;1.05;;;1.00;;
66425;SDS011;53237;46.158;14.604;2023-07-31T10:44:52;1.20;;;1.10;;
66425;SDS011;53237;46.158;14.604;2023-07-31T10:47:20;2.38;;;1.10;;
66425;SDS011;53237;46.158;14.604;2023-07-31T10:49:47;1.00;;;1.00;;
66425;SDS011;53237;46.158;14.604;2023-07-31T10:52:15;0.95;;;0.95;;
66425;SDS011;53237;46.158;14.604;2023-07-31T10:54:47;1.30;;;1.20;;
66425;SDS011;53237;46.158;14.604;2023-07-31T10:57:20;1.20;;;1.17;;
66425;SDS011;53237;46.158;14.604;2023-07-31T10:59:46;1.38;;;0.80;;
66425;SDS011;53237;46.158;14.604;2023-07-31T11:02:25;1.20;;;1.10;;
66425;SDS011;53237;46.158;14.604;2023-07-31T11:05:15;1.38;;;1.20;;
66425;SDS011;53237;46.158;14.604;2023-07-31T11:07:47;0.98;;;0.98;;
66425;SDS011;53237;46.158;14.604;2023-07-31T11:10:15;2.05;;;1.08;;
66425;SDS011;53237;46.158;14.604;2023-07-31T11:12:42;2.55;;;1.08;;
66425;SDS011;53237;46.158;14.604;2023-07-31T11:15:08;1.40;;;1.30;;
66425;SDS011;53237;46.158;14.604;2023-07-31T11:17:38;2.38;;;1.55;;
66425;SDS011;53237;46.158;14.604;2023-07-31T11:20:04;1.40;;;1.30;;
66425;SDS011;53237;46.158;14.604;2023-07-31T11:22:30;1.63;;;1.38;;
66425;SDS011;53237;46.158;14.604;2023-07-31T11:24:56;1.35;;;1.25;;
66425;SDS011;53237;46.158;14.604;2023-07-31T11:27:22;1.20;;;1.20;;
66425;SDS011;53237;46.158;14.604;2023-07-31T11:29:50;1.85;;;1.13;;
66425;SDS011;53237;46.158;14.604;2023-07-31T11:32:16;1.10;;;1.10;;
66425;SDS011;53237;46.158;14.604;2023-07-31T11:34:52;1.40;;;1.30;;
66425;SDS011;53237;46.158;14.604;2023-07-31T11:37:18;0.88;;;0.88;;
66425;SDS011;53237;46.158;14.604;2023-07-31T11:39:58;1.02;;;1.02;;
66425;SDS011;53237;46.158;14.604;2023-07-31T11:42:24;1.30;;;1.20;;
66425;SDS011;53237;46.158;14.604;2023-07-31T11:44:49;1.00;;;1.00;;
66425;SDS011;53237;46.158;14.604;2023-07-31T11:47:16;0.90;;;0.90;;
66425;SDS011;53237;46.158;14.604;2023-07-31T11:49:43;2.13;;;1.00;;
66425;SDS011;53237;46.158;14.604;2023-07-31T11:52:09;0.93;;;0.93;;
66425;SDS011;53237;46.158;14.604;2023-07-31T11:54:36;1.20;;;1.10;;
66425;SDS011;53237;46.158;14.604;2023-07-31T11:57:02;1.30;;;1.20;;
66425;SDS011;53237;46.158;14.604;2023-07-31T11:59:28;1.20;;;1.20;;
66425;SDS011;53237;46.158;14.604;2023-07-31T12:01:54;1.52;;;1.13;;
66425;SDS011;53237;46.158;14.604;2023-07-31T12:04:20;1.10;;;1.00;;
66425;SDS011;53237;46.158;14.604;2023-07-31T12:06:47;1.15;;;1.05;;
66425;SDS011;53237;46.158;14.604;2023-07-31T12:09:16;1.70;;;0.98;;
66425;SDS011;53237;46.158;14.604;2023-07-31T12:11:45;1.10;;;1.10;;
66425;SDS011;53237;46.158;14.604;2023-07-31T12:14:21;1.30;;;1.20;;
66425;SDS011;53237;46.158;14.604;2023-07-31T12:16:47;1.20;;;1.10;;
66425;SDS011;53237;46.158;14.604;2023-07-31T12:19:13;1.90;;;1.15;;
66425;SDS011;53237;46.158;14.604;2023-07-31T12:21:39;1.10;;;1.00;;
66425;SDS011;53237;46.158;14.604;2023-07-31T12:24:05;1.20;;;1.10;;
66425;SDS011;53237;46.158;14.604;2023-07-31T12:26:34;1.33;;;1.30;;
66425;SDS011;53237;46.158;14.604;2023-07-31T12:29:00;1.20;;;1.20;;
66425;SDS011;53237;46.158;14.604;2023-07-31T12:31:28;1.15;;;1.15;;
66425;SDS011;53237;46.158;14.604;2023-07-31T12:33:54;1.35;;;1.10;;
66425;SDS011;53237;46.158;14.604;2023-07-31T12:36:23;1.27;;;1.17;;
66425;SDS011;53237;46.158;14.604;2023-07-31T12:38:50;1.20;;;1.10;;
66425;SDS011;53237;46.158;14.604;2023-07-31T12:41:16;1.23;;;1.10;;
66425;SDS011;53237;46.158;14.604;2023-07-31T12:43:43;1.00;;;1.00;;
66425;SDS011;53237;46.158;14.604;2023-07-31T12:46:09;1.25;;;1.15;;
66425;SDS011;53237;46.158;14.604;2023-07-31T12:48:35;1.10;;;1.10;;
66425;SDS011;53237;46.158;14.604;2023-07-31T12:51:02;1.02;;;1.02;;
66425;SDS011;53237;46.158;14.604;2023-07-31T12:53:28;1.30;;;1.20;;
66425;SDS011;53237;46.158;14.604;2023-07-31T12:55:54;1.10;;;1.10;;
66425;SDS011;53237;46.158;14.604;2023-07-31T12:58:21;1.15;;;1.13;;
66425;SDS011;53237;46.158;14.604;2023-07-31T13:00:47;1.38;;;1.27;;
66425;SDS011;53237;46.158;14.604;2023-07-31T13:03:13;1.10;;;1.10;;
66425;SDS011;53237;46.158;14.604;2023-07-31T13:05:39;1.10;;;1.10;;
66425;SDS011;53237;46.158;14.604;2023-07-31T13:08:05;1.20;;;1.10;;
66425;SDS011;53237;46.158;14.604;2023-07-31T13:10:31;1.00;;;1.00;;
66425;SDS011;53237;46.158;14.604;2023-07-31T13:12:57;1.30;;;1.20;;
66425;SDS011;53237;46.158;14.604;2023-07-31T13:15:23;1.08;;;1.08;;
66425;SDS011;53237;46.158;14.604;2023-07-31T13:17:49;1.00;;;1.00;;
66425;SDS011;53237;46.158;14.604;2023-07-31T13:20:15;1.48;;;1.20;;
66425;SDS011;53237;46.158;14.604;2023-07-31T13:22:41;1.20;;;1.20;;
66425;SDS011;53237;46.158;14.604;2023-07-31T13:25:07;0.93;;;0.93;;
66425;SDS011;53237;46.158;14.604;2023-07-31T13:27:33;1.02;;;1.02;;
66425;SDS011;53237;46.158;14.604;2023-07-31T13:29:59;1.00;;;1.00;;
66425;SDS011;53237;46.158;14.604;2023-07-31T13:32:25;1.30;;;1.20;;
66425;SDS011;53237;46.158;14.604;2023-07-31T13:34:51;1.17;;;1.10;;
66425;SDS011;53237;46.158;14.604;2023-07-31T13:37:17;1.00;;;1.00;;
66425;SDS011;53237;46.158;14.604;2023-07-31T13:39:43;1.10;;;1.10;;
66425;SDS011;53237;46.158;14.604;2023-07-31T13:42:10;1.10;;;1.10;;
66425;SDS011;53237;46.158;14.604;2023-07-31T13:44:37;1.00;;;1.00;;
66425;SDS011;53237;46.158;14.604;2023-07-31T13:47:03;1.17;;;1.10;;
66425;SDS011;53237;46.158;14.604;2023-07-31T13:49:30;1.88;;;0.90;;
66425;SDS011;53237;46.158;14.604;2023-07-31T13:51:56;1.17;;;1.17;;
66425;SDS011;53237;46.158;14.604;2023-07-31T13:54:22;1.20;;;1.10;;
66425;SDS011;53237;46.158;14.604;2023-07-31T13:56:48;1.20;;;1.10;;
66425;SDS011;53237;46.158;14.604;2023-07-31T13:59:15;1.42;;;1.33;;
66425;SDS011;53237;46.158;14.604;2023-07-31T14:01:41;0.90;;;0.90;;
66425;SDS011;53237;46.158;14.604;2023-07-31T14:04:07;1.80;;;1.08;;
66425;SDS011;53237;46.158;14.604;2023-07-31T14:06:33;1.05;;;1.02;;
66425;SDS011;53237;46.158;14.604;2023-07-31T14:08:59;2.00;;;1.23;;
66425;SDS011;53237;46.158;14.604;2023-07-31T14:11:26;1.77;;;1.02;;
66425;SDS011;53237;46.158;14.604;2023-07-31T14:13:52;1.60;;;1.50;;
66425;SDS011;53237;46.158;14.604;2023-07-31T14:16:18;1.50;;;1.40;;
66425;SDS011;53237;46.158;14.604;2023-07-31T14:18:44;1.48;;;1.15;;
66425;SDS011;53237;46.158;14.604;2023-07-31T14:21:12;1.13;;;1.08;;
66425;SDS011;53237;46.158;14.604;2023-07-31T14:23:39;1.33;;;1.20;;
66425;SDS011;53237;46.158;14.604;2023-07-31T14:26:05;1.00;;;1.00;;
66425;SDS011;53237;46.158;14.604;2023-07-31T14:28:31;1.00;;;1.00;;
66425;SDS011;53237;46.158;14.604;2023-07-31T14:30:57;1.30;;;1.20;;
66425;SDS011;53237;46.158;14.604;2023-07-31T14:33:23;1.40;;;1.30;;
66425;SDS011;53237;46.158;14.604;2023-07-31T14:35:49;1.20;;;1.13;;
66425;SDS011;53237;46.158;14.604;2023-07-31T14:38:15;1.80;;;1.25;;
66425;SDS011;53237;46.158;14.604;2023-07-31T14:40:41;1.25;;;1.20;;
66425;SDS011;53237;46.158;14.604;2023-07-31T14:43:07;1.17;;;1.10;;